This is the latest recevied weather packets stored in our database for station/object KB3KAV. If no packets are shown the sender has not sent any weather packets the latest 10 day(s).
| Time | Temp. | Humidity | Pressure | Rain* | Wind** | Luminosity | Snow |
|---|---|---|---|---|---|---|---|
| 1787873485 | 22.78° C | 94% | 1042.2 hPa | 0 mm | - | 0 W/m² | - |
| 1787872884 | 22.78° C | 93% | 1041.6 hPa | 0 mm | - | 3 W/m² | - |
| 1787872281 | 23.33° C | 91% | 1041.9 hPa | 0 mm | - | 6 W/m² | - |
| 1787871677 | 23.89° C | 90% | 1042 hPa | 0 mm | - | 10 W/m² | - |
| 1787871072 | 25° C | 84% | 1041.8 hPa | 0 mm | - | 17 W/m² | - |
| 1787870472 | 25.56° C | 77% | 1041.3 hPa | 0 mm | - | 18 W/m² | - |
| 1787869867 | 26.11° C | 78% | 1041.2 hPa | 0 mm | - | 22 W/m² | - |
| 1787869268 | 26.67° C | 78% | 1041.6 hPa | 0 mm | - | 68 W/m² | - |
| 1787868667 | 28.33° C | 73% | 1041.5 hPa | 0 mm | - | 191 W/m² | - |
| 1787868066 | 27.78° C | 68% | 1041.6 hPa | 0 mm | - | 107 W/m² | - |
| 1787867461 | 28.89° C | 66% | 1041.6 hPa | 0 mm | - | 215 W/m² | - |
| 1787866858 | 28.89° C | 67% | 1042 hPa | 0 mm | - | 244 W/m² | - |
| 1787866257 | 28.89° C | 66% | 1042 hPa | 0 mm | - | 265 W/m² | - |
| 1787865654 | 28.89° C | 68% | 1041.9 hPa | 0 mm | - | 288 W/m² | - |
| 1787865049 | 28.33° C | 70% | 1042.2 hPa | 0 mm | - | 173 W/m² | - |
| 1787864450 | 29.44° C | 67% | 1042.1 hPa | 0 mm | - | 379 W/m² | - |
| 1787863849 | 28.33° C | 70% | 1041.8 hPa | 0 mm | - | 257 W/m² | - |
| 1787863249 | 27.78° C | 67% | 1042.1 hPa | 0 mm | - | 200 W/m² | - |
| 1787862645 | 27.78° C | 67% | 1042.2 hPa | 0 mm | - | 164 W/m² | - |
| 1787862042 | 28.33° C | 66% | 1042.1 hPa | 0 mm | - | 133 W/m² | - |
| 1787861440 | 28.33° C | 67% | 1042.3 hPa | 0 mm | - | 230 W/m² | - |
| 1787860840 | 28.33° C | 66% | 1042.5 hPa | 0 mm | - | 165 W/m² | - |
| 1787860236 | 29.44° C | 62% | 1042.7 hPa | 0 mm | - | 497 W/m² | - |
| 1787859632 | 28.89° C | 62% | 1042.5 hPa | 0 mm | - | 554 W/m² | - |
| 1787859028 | 28.89° C | 62% | 1042.8 hPa | 0 mm | - | 539 W/m² | - |
* Rain latest hour (hover to see other rain measurements)
** Current wind speed in m/s (hover to see current wind gust speed)